createdAt,value
2019-04-01T00:02:49.297Z,6.80
2019-04-01T00:07:52.575Z,6.71
2019-04-01T00:12:55.883Z,6.70
2019-04-01T00:17:59.181Z,6.59
2019-04-01T00:23:02.726Z,6.64
2019-04-01T00:28:06.126Z,6.64
2019-04-01T00:33:09.419Z,6.52
2019-04-01T00:38:12.725Z,6.46
2019-04-01T00:43:17.647Z,6.41
2019-04-01T00:48:21.035Z,6.40
2019-04-01T00:53:24.367Z,6.28
2019-04-01T00:58:30.564Z,6.27
2019-04-01T01:03:33.578Z,6.30
2019-04-01T01:08:36.892Z,6.33
2019-04-01T01:13:40.372Z,6.25
2019-04-01T01:18:43.669Z,6.20
2019-04-01T01:23:46.973Z,6.25
2019-04-01T01:28:50.361Z,6.22
2019-04-01T01:33:53.718Z,6.22
2019-04-01T01:38:57.015Z,6.17
2019-04-01T01:44:00.689Z,6.11
2019-04-01T01:49:03.986Z,6.05
2019-04-01T01:54:07.354Z,5.96
2019-04-01T01:59:10.650Z,5.82
2019-04-01T02:04:14.056Z,5.82
2019-04-01T02:09:17.345Z,5.88
2019-04-01T02:14:20.640Z,5.80
2019-04-01T02:19:23.952Z,5.56
2019-04-01T02:24:27.241Z,5.45
2019-04-01T02:29:30.538Z,5.30
2019-04-01T02:34:33.877Z,5.19
2019-04-01T02:39:37.178Z,5.18
2019-04-01T02:44:40.551Z,5.36
2019-04-01T02:49:43.845Z,5.28
2019-04-01T02:54:47.152Z,4.94
2019-04-01T02:59:50.450Z,4.90
2019-04-01T03:04:53.826Z,4.82
2019-04-01T03:09:57.210Z,4.62
2019-04-01T03:15:00.564Z,4.52
2019-04-01T03:20:05.105Z,4.52
2019-04-01T03:25:08.539Z,4.52
2019-04-01T03:30:11.870Z,4.59
2019-04-01T03:35:15.147Z,4.57
2019-04-01T03:40:18.443Z,4.52
2019-04-01T03:45:21.737Z,4.49
2019-04-01T03:50:25.033Z,4.42
2019-04-01T03:55:28.322Z,4.47
2019-04-01T04:00:31.618Z,4.34
2019-04-01T04:05:34.926Z,4.23
2019-04-01T04:10:38.287Z,4.03
2019-04-01T04:15:41.651Z,4.11
2019-04-01T04:20:45.002Z,4.12
2019-04-01T04:25:49.428Z,4.11
2019-04-01T04:30:52.869Z,4.06
2019-04-01T04:35:56.176Z,3.91
2019-04-01T04:40:59.456Z,3.94
2019-04-01T04:46:02.754Z,3.98
2019-04-01T04:51:06.048Z,4.03
2019-04-01T04:56:09.322Z,3.97
2019-04-01T05:01:13.129Z,4.03
2019-04-01T05:06:16.394Z,4.18
2019-04-01T05:11:19.691Z,4.60
2019-04-01T05:16:23.069Z,4.63
2019-04-01T05:21:26.741Z,4.85
2019-04-01T05:26:30.410Z,4.95
2019-04-01T05:31:34.749Z,5.18
2019-04-01T05:36:38.117Z,5.33
2019-04-01T05:41:41.464Z,5.43
2019-04-01T05:46:44.763Z,5.53
2019-04-01T05:51:48.130Z,5.64
2019-04-01T05:56:51.611Z,5.73
2019-04-01T06:01:54.911Z,5.88
2019-04-01T06:06:58.250Z,5.98
2019-04-01T06:12:01.562Z,6.11
2019-04-01T06:17:04.855Z,6.22
2019-04-01T06:22:08.223Z,6.32
2019-04-01T06:27:12.043Z,6.42
2019-04-01T06:32:15.888Z,6.61
2019-04-01T06:37:19.178Z,6.56
2019-04-01T06:42:22.485Z,6.83
2019-04-01T06:47:25.779Z,6.85
2019-04-01T06:52:29.083Z,6.86
2019-04-01T06:57:32.376Z,6.98
2019-04-01T07:02:35.672Z,7.09
2019-04-01T07:07:38.971Z,7.12
2019-04-01T07:12:42.548Z,7.28
2019-04-01T07:17:45.847Z,7.47
2019-04-01T07:22:49.271Z,7.67
2019-04-01T07:27:52.579Z,7.75
2019-04-01T07:32:55.879Z,8.10
2019-04-01T07:37:59.175Z,8.15
2019-04-01T07:43:02.848Z,8.35
2019-04-01T07:48:06.168Z,8.65
2019-04-01T07:53:09.641Z,8.71
2019-04-01T07:58:12.944Z,9.07
2019-04-01T08:03:16.306Z,8.98
2019-04-01T08:08:19.681Z,9.42
2019-04-01T08:13:22.983Z,9.44
2019-04-01T08:18:26.297Z,9.98
2019-04-01T08:23:29.676Z,10.14
2019-04-01T08:28:33.048Z,10.41
2019-04-01T08:33:36.344Z,10.64
2019-04-01T08:38:39.769Z,11.19
2019-04-01T08:43:44.019Z,11.74
2019-04-01T08:48:47.407Z,12.34
2019-04-01T08:53:50.899Z,12.08
2019-04-01T08:58:54.463Z,12.94
2019-04-01T09:03:57.769Z,13.12
2019-04-01T09:09:01.643Z,13.45
2019-04-01T09:14:05.018Z,13.23
2019-04-01T09:19:08.331Z,13.23
2019-04-01T09:24:11.624Z,13.41
2019-04-01T09:29:15.005Z,13.78
2019-04-01T09:34:18.306Z,13.52
2019-04-01T09:39:21.605Z,13.27
2019-04-01T09:44:36.086Z,13.57
2019-04-01T09:49:29.940Z,13.49
2019-04-01T09:54:33.245Z,14.11
2019-04-01T09:59:36.669Z,13.77
2019-04-01T10:04:39.930Z,14.29
2019-04-01T10:09:43.295Z,14.48
2019-04-01T10:14:46.633Z,13.97
2019-04-01T10:19:49.892Z,14.09
2019-04-01T10:24:53.206Z,14.84
2019-04-01T10:29:56.511Z,15.41
2019-04-01T10:34:59.825Z,15.26
2019-04-01T10:40:03.699Z,15.14
2019-04-01T10:45:08.620Z,14.79
2019-04-01T10:50:13.253Z,14.73
2019-04-01T10:55:16.551Z,14.63
2019-04-01T11:00:20.046Z,14.22
2019-04-01T11:05:23.357Z,15.13
2019-04-01T11:10:26.697Z,15.81
2019-04-01T11:15:30.009Z,15.68
2019-04-01T11:20:33.409Z,15.57
2019-04-01T11:25:36.717Z,16.40
2019-04-01T11:30:40.027Z,15.91
2019-04-01T11:35:43.326Z,16.23
2019-04-01T11:40:46.679Z,16.37
2019-04-01T11:45:50.070Z,16.44
2019-04-01T11:50:53.988Z,16.53
2019-04-01T11:55:57.557Z,16.42
2019-04-01T12:01:00.863Z,17.43
2019-04-01T12:06:04.236Z,17.63
2019-04-01T12:11:07.540Z,18.01
2019-04-01T12:16:10.911Z,18.25
2019-04-01T12:21:14.220Z,19.13
2019-04-01T12:26:17.717Z,17.76
2019-04-01T12:31:21.730Z,17.60
2019-04-01T12:36:25.392Z,17.39
2019-04-01T12:41:28.787Z,17.96
2019-04-01T12:46:32.088Z,18.68
2019-04-01T12:51:35.465Z,18.80
2019-04-01T12:56:38.781Z,18.68
2019-04-01T13:01:42.087Z,17.66
2019-04-01T13:06:45.393Z,19.35
2019-04-01T13:11:49.087Z,19.25
2019-04-01T13:16:52.735Z,18.71
2019-04-01T13:21:56.249Z,19.63
2019-04-01T13:27:00.351Z,20.46
2019-04-01T13:32:03.918Z,18.13
2019-04-01T13:37:07.285Z,19.91
2019-04-01T13:42:10.598Z,19.79
2019-04-01T13:47:13.880Z,19.67
2019-04-01T13:52:17.193Z,19.06
2019-04-01T13:57:20.692Z,18.82
2019-04-01T14:02:23.996Z,18.79
2019-04-01T14:07:27.300Z,18.79
2019-04-01T14:12:30.704Z,18.35
2019-04-01T14:17:34.001Z,18.25
2019-04-01T14:22:37.340Z,17.83
2019-04-01T14:27:40.640Z,19.22
2019-04-01T14:32:43.950Z,19.06
2019-04-01T14:37:47.388Z,18.52
2019-04-01T14:42:51.629Z,18.75
2019-04-01T14:47:57.553Z,19.09
2019-04-01T14:52:59.967Z,18.26
2019-04-01T14:58:03.281Z,18.59
2019-04-01T15:03:06.585Z,18.13
2019-04-01T15:08:09.979Z,18.88
2019-04-01T15:13:13.292Z,18.87
2019-04-01T15:18:16.779Z,18.56
2019-04-01T15:23:20.108Z,18.93
2019-04-01T15:28:25.487Z,17.97
2019-04-01T15:33:28.807Z,17.60
2019-04-01T15:38:32.130Z,17.83
2019-04-01T15:43:35.460Z,16.27
2019-04-01T15:48:38.794Z,16.04
2019-04-01T15:53:42.094Z,16.38
2019-04-01T15:58:45.418Z,15.61
2019-04-01T16:03:48.731Z,16.31
2019-04-01T16:08:52.063Z,16.78
2019-04-01T16:13:55.382Z,14.96
2019-04-01T16:18:59.977Z,14.59
2019-04-01T16:24:03.465Z,14.15
2019-04-01T16:29:06.802Z,13.89
2019-04-01T16:34:10.111Z,14.01
2019-04-01T16:39:13.422Z,13.98
2019-04-01T16:44:16.805Z,13.71
2019-04-01T16:49:20.152Z,13.82
2019-04-01T16:54:23.444Z,13.74
2019-04-01T16:59:28.049Z,13.51
2019-04-01T17:04:32.765Z,13.14
2019-04-01T17:09:36.288Z,13.02
2019-04-01T17:14:39.614Z,13.02
2019-04-01T17:19:42.939Z,12.73
2019-04-01T17:24:46.332Z,12.85
2019-04-01T17:29:49.650Z,12.69
2019-04-01T17:34:52.974Z,12.54
2019-04-01T17:39:56.324Z,12.38
2019-04-01T17:45:02.815Z,12.35
2019-04-01T17:50:07.281Z,12.15
2019-04-01T17:55:10.615Z,12.05
2019-04-01T18:00:17.443Z,12.02
2019-04-01T18:05:22.366Z,11.88
2019-04-01T18:10:25.701Z,11.79
2019-04-01T18:15:29.032Z,11.55
2019-04-01T18:20:33.473Z,11.37
2019-04-01T18:25:37.496Z,11.14
2019-04-01T18:30:40.816Z,10.96
2019-04-01T18:35:44.947Z,10.79
2019-04-01T18:40:48.444Z,10.69
2019-04-01T18:45:51.805Z,10.59
2019-04-01T18:50:55.195Z,10.50
2019-04-01T18:56:00.478Z,10.37
2019-04-01T19:01:04.540Z,10.27
2019-04-01T19:06:07.875Z,10.19
2019-04-01T19:11:11.329Z,10.13
2019-04-01T19:16:16.638Z,10.04
2019-04-01T19:21:19.754Z,9.91
2019-04-01T19:26:24.208Z,9.87
2019-04-01T19:31:27.736Z,9.79
2019-04-01T19:36:31.051Z,9.75
2019-04-01T19:41:34.376Z,9.59
2019-04-01T19:46:38.129Z,9.51
2019-04-01T19:51:41.704Z,9.42
2019-04-01T19:56:45.099Z,9.44
2019-04-01T20:01:49.366Z,9.38
2019-04-01T20:06:52.677Z,9.31
2019-04-01T20:11:58.365Z,9.16
2019-04-01T20:17:02.276Z,8.98
2019-04-01T20:22:05.909Z,8.81
2019-04-01T20:27:10.260Z,8.83
2019-04-01T20:32:17.495Z,8.75
2019-04-01T20:37:20.580Z,8.69
2019-04-01T20:42:24.038Z,8.53
2019-04-01T20:47:27.798Z,8.34
2019-04-01T20:52:33.150Z,8.32
2019-04-01T20:57:39.535Z,8.32
2019-04-01T21:02:45.951Z,8.15
2019-04-01T21:07:50.690Z,8.21
2019-04-01T21:12:55.891Z,7.99
2019-04-01T21:17:59.187Z,8.11
2019-04-01T21:23:02.748Z,8.21
2019-04-01T21:28:06.132Z,7.83
2019-04-01T21:33:09.586Z,7.54
2019-04-01T21:38:12.887Z,7.65
2019-04-01T21:43:17.760Z,7.43
2019-04-01T21:48:21.123Z,7.25
2019-04-01T21:53:24.438Z,7.12
2019-04-01T21:58:27.736Z,7.06
2019-04-01T22:03:31.030Z,7.00
2019-04-01T22:08:35.215Z,6.69
2019-04-01T22:13:39.375Z,6.56
2019-04-01T22:18:43.018Z,6.56
2019-04-01T22:23:46.640Z,6.60
2019-04-01T22:28:50.195Z,6.57
2019-04-01T22:33:54.433Z,6.53
2019-04-01T22:38:57.724Z,6.28
2019-04-01T22:44:01.010Z,6.16
2019-04-01T22:49:04.577Z,6.04
2019-04-01T22:54:07.874Z,6.02
2019-04-01T22:59:11.179Z,5.83
2019-04-01T23:04:14.449Z,5.73
2019-04-01T23:09:17.753Z,5.69
2019-04-01T23:14:21.028Z,5.69
2019-04-01T23:19:24.333Z,5.57
2019-04-01T23:24:28.262Z,5.47
2019-04-01T23:29:31.923Z,5.31
2019-04-01T23:34:35.220Z,5.32
2019-04-01T23:39:38.531Z,5.27
2019-04-01T23:44:41.827Z,5.26
2019-04-01T23:49:45.123Z,5.21
2019-04-01T23:54:48.417Z,5.07
2019-04-01T23:59:51.713Z,5.02
